Time;durP1;ratioP1;P1;durP2;ratioP2;P2;SDS_P1;SDS_P2;PMS_P1;PMS_P2;Temp;Humidity;BMP_temperature;BMP_pressure;BME280_temperature;BME280_humidity;BME280_pressure;Samples;Min_cycle;Max_cycle;Signal;HPM_P1;HPM_P2
2024/01/25 00:02:21;;;;;;;23.00;9.82;;;1.30;99.90;;;;;;5034594;28;20029;-85
2024/01/25 00:04:47;;;;;;;25.55;13.18;;;1.30;99.90;;;;;;5032242;28;20306;-85
2024/01/25 00:07:13;;;;;;;27.48;12.43;;;1.20;99.90;;;;;;5032993;28;20392;-88
2024/01/25 00:09:39;;;;;;;30.15;13.57;;;1.20;99.90;;;;;;5032613;28;20033;-86
2024/01/25 00:12:05;;;;;;;28.48;15.75;;;1.20;99.90;;;;;;5031358;28;20426;-85
2024/01/25 00:14:31;;;;;;;22.50;12.55;;;1.20;99.90;;;;;;5024584;28;20037;-85
2024/01/25 00:16:56;;;;;;;27.73;13.65;;;1.10;99.90;;;;;;5027734;28;20327;-84
2024/01/25 00:19:22;;;;;;;25.05;12.40;;;1.10;99.90;;;;;;5035870;28;20047;-85
2024/01/25 00:21:48;;;;;;;23.20;13.60;;;1.10;99.90;;;;;;5030417;28;20509;-87
2024/01/25 00:24:14;;;;;;;32.60;13.98;;;1.10;99.90;;;;;;5031559;28;20068;-86
2024/01/25 00:26:40;;;;;;;30.02;16.60;;;1.10;99.90;;;;;;5036969;28;20071;-85
2024/01/25 00:29:06;;;;;;;25.92;13.63;;;1.10;99.90;;;;;;5023617;28;20409;-86
2024/01/25 00:31:32;;;;;;;28.05;17.73;;;1.10;99.90;;;;;;5033086;28;20052;-86
2024/01/25 00:33:58;;;;;;;28.35;14.55;;;1.10;99.90;;;;;;5030040;28;20017;-86
2024/01/25 00:36:25;;;;;;;29.92;15.98;;;1.00;99.90;;;;;;5033372;28;20100;-85
2024/01/25 00:38:51;;;;;;;21.30;13.27;;;1.00;99.90;;;;;;5034726;28;20029;-86
2024/01/25 00:41:19;;;;;;;34.60;16.58;;;1.10;99.90;;;;;;5053242;28;20059;-88
2024/01/25 00:43:45;;;;;;;25.52;14.80;;;1.10;99.90;;;;;;5026864;28;20148;-85
2024/01/25 00:46:12;;;;;;;30.85;17.88;;;1.00;99.90;;;;;;5036315;28;20049;-87
2024/01/25 00:48:40;;;;;;;31.58;17.42;;;1.00;99.90;;;;;;5032942;28;20033;-85
2024/01/25 00:51:07;;;;;;;33.28;17.95;;;1.00;99.90;;;;;;5023196;28;20025;-87
2024/01/25 00:53:34;;;;;;;27.95;16.52;;;1.00;99.90;;;;;;5041277;28;20104;-87
2024/01/25 00:56:00;;;;;;;25.95;16.10;;;0.90;99.90;;;;;;5042678;28;20030;-87
2024/01/25 00:58:26;;;;;;;32.47;16.52;;;0.90;99.90;;;;;;5022716;28;20495;-84
2024/01/25 01:00:52;;;;;;;30.90;13.68;;;0.90;99.90;;;;;;5032411;28;20022;-88
2024/01/25 01:03:19;;;;;;;26.88;16.55;;;0.80;99.90;;;;;;5026665;28;20056;-88
2024/01/25 01:05:45;;;;;;;29.50;19.33;;;0.80;99.90;;;;;;5019727;28;20525;-86
2024/01/25 01:08:12;;;;;;;28.48;16.05;;;0.70;99.90;;;;;;5021166;28;20026;-87
2024/01/25 01:10:38;;;;;;;32.53;16.60;;;0.80;99.90;;;;;;5025534;28;20037;-87
2024/01/25 01:13:04;;;;;;;37.28;18.85;;;0.80;99.90;;;;;;5032274;28;20132;-87
2024/01/25 01:15:30;;;;;;;30.38;15.40;;;0.80;99.90;;;;;;5034999;28;20037;-87
2024/01/25 01:17:55;;;;;;;29.02;16.83;;;0.80;99.90;;;;;;5031490;28;20040;-85
2024/01/25 01:20:21;;;;;;;27.17;15.00;;;0.80;99.90;;;;;;5047826;28;20010;-87
2024/01/25 01:22:47;;;;;;;31.85;15.57;;;0.90;99.90;;;;;;5049968;28;20021;-90
2024/01/25 01:25:13;;;;;;;34.38;15.73;;;0.80;99.90;;;;;;5038276;28;20030;-87
2024/01/25 01:27:39;;;;;;;31.17;16.58;;;0.90;99.90;;;;;;5035225;28;20026;-87
2024/01/25 01:30:08;;;;;;;20.80;10.80;;;0.90;99.90;;;;;;5022628;28;20164;-85
2024/01/25 01:32:34;;;;;;;22.67;13.43;;;0.90;99.90;;;;;;5036601;28;20041;-86
2024/01/25 01:34:59;;;;;;;30.92;15.75;;;0.80;99.90;;;;;;5035961;28;20033;-86
2024/01/25 01:37:25;;;;;;;28.70;13.55;;;0.80;99.90;;;;;;5040999;28;20026;-87
2024/01/25 01:39:52;;;;;;;35.10;17.20;;;0.80;99.90;;;;;;5055019;28;20068;-87
2024/01/25 01:42:18;;;;;;;31.83;17.20;;;0.80;99.90;;;;;;5054037;28;20410;-87
2024/01/25 01:44:44;;;;;;;22.13;10.57;;;0.80;99.90;;;;;;5050622;28;20056;-86
2024/01/25 01:47:10;;;;;;;26.95;15.48;;;0.90;99.90;;;;;;5066158;28;20021;-87
2024/01/25 01:49:36;;;;;;;20.20;10.02;;;0.90;99.90;;;;;;5056869;28;20402;-85
2024/01/25 01:52:02;;;;;;;26.00;14.57;;;0.90;99.90;;;;;;5056523;28;20021;-86
2024/01/25 01:54:28;;;;;;;21.70;9.52;;;0.90;99.90;;;;;;5043535;28;20025;-85
2024/01/25 01:56:55;;;;;;;27.85;11.45;;;0.90;99.90;;;;;;5060964;28;20017;-88
2024/01/25 01:59:21;;;;;;;20.88;12.27;;;0.90;99.90;;;;;;5067072;28;20021;-85
2024/01/25 02:01:47;;;;;;;21.52;12.02;;;0.90;99.90;;;;;;5059204;28;20036;-84
2024/01/25 02:04:13;;;;;;;18.58;11.25;;;0.90;99.90;;;;;;5044681;28;20028;-85
2024/01/25 02:06:39;;;;;;;22.10;12.70;;;0.90;99.90;;;;;;5054265;28;20152;-85
2024/01/25 02:09:06;;;;;;;22.60;12.80;;;0.90;99.90;;;;;;5056571;28;20021;-87
2024/01/25 02:11:32;;;;;;;19.73;8.93;;;0.90;99.90;;;;;;5057413;28;20401;-87
2024/01/25 02:13:58;;;;;;;20.95;12.00;;;0.90;99.90;;;;;;5032275;28;20369;-86
2024/01/25 02:16:24;;;;;;;16.35;7.72;;;0.90;99.90;;;;;;5040832;28;20036;-88
2024/01/25 02:18:49;;;;;;;17.80;9.15;;;0.80;99.90;;;;;;5040854;28;20512;-87
2024/01/25 02:21:15;;;;;;;21.55;10.95;;;0.80;99.90;;;;;;5060112;28;20053;-87
2024/01/25 02:23:41;;;;;;;21.65;13.48;;;0.80;99.90;;;;;;5039265;28;20524;-87
2024/01/25 02:26:07;;;;;;;21.35;11.68;;;0.80;99.90;;;;;;5056956;28;20041;-88
2024/01/25 02:28:34;;;;;;;14.40;8.15;;;0.70;99.90;;;;;;5040903;28;20070;-87
2024/01/25 02:31:01;;;;;;;21.00;9.93;;;0.70;99.90;;;;;;5052763;28;20033;-86
2024/01/25 02:33:27;;;;;;;17.73;9.55;;;0.60;99.90;;;;;;5048504;28;20043;-86
2024/01/25 02:35:53;;;;;;;19.52;9.05;;;0.60;99.90;;;;;;5047496;28;20487;-85
2024/01/25 02:38:18;;;;;;;18.10;10.50;;;0.50;99.90;;;;;;5037692;28;20017;-86
2024/01/25 02:40:44;;;;;;;24.33;12.70;;;0.50;99.90;;;;;;5055272;28;20025;-88
2024/01/25 02:43:10;;;;;;;18.92;12.65;;;0.50;99.90;;;;;;5037694;28;20371;-87
2024/01/25 02:45:36;;;;;;;20.05;10.98;;;0.50;99.90;;;;;;5061205;28;20140;-85
2024/01/25 02:48:03;;;;;;;19.08;10.93;;;0.50;99.90;;;;;;5052018;28;20059;-87
2024/01/25 02:50:29;;;;;;;22.70;13.43;;;0.50;99.90;;;;;;5037316;28;20086;-87
2024/01/25 02:53:02;;;;;;;23.55;11.40;;;0.40;99.90;;;;;;5054409;28;20452;-87
2024/01/25 02:55:28;;;;;;;23.92;12.52;;;0.40;99.90;;;;;;5057733;28;20021;-86
2024/01/25 02:57:54;;;;;;;26.65;14.23;;;0.40;99.90;;;;;;5039357;28;20032;-87
2024/01/25 03:00:20;;;;;;;29.35;13.55;;;0.40;99.90;;;;;;5036675;28;20074;-84
2024/01/25 03:02:46;;;;;;;25.80;14.10;;;0.40;99.90;;;;;;5055231;28;20029;-85
2024/01/25 03:05:11;;;;;;;19.92;12.20;;;0.40;99.90;;;;;;5057787;28;20054;-86
2024/01/25 03:07:37;;;;;;;24.33;12.85;;;0.40;99.90;;;;;;5057994;28;20075;-87
2024/01/25 03:10:04;;;;;;;31.60;13.48;;;0.40;99.90;;;;;;5054795;28;20163;-86
2024/01/25 03:12:29;;;;;;;25.40;14.85;;;0.30;99.90;;;;;;5055980;28;20025;-86
2024/01/25 03:14:55;;;;;;;27.42;14.48;;;0.40;99.90;;;;;;5055183;28;20044;-86
2024/01/25 03:17:21;;;;;;;22.33;14.75;;;0.40;99.90;;;;;;5054220;28;20032;-86
2024/01/25 03:19:48;;;;;;;25.20;14.07;;;0.40;99.90;;;;;;5055015;28;20071;-87
2024/01/25 03:22:15;;;;;;;18.85;9.57;;;0.40;99.90;;;;;;5054887;28;20021;-86
2024/01/25 03:24:40;;;;;;;21.27;12.68;;;0.30;99.90;;;;;;5058837;28;20021;-86
2024/01/25 03:27:13;;;;;;;20.98;13.10;;;0.30;99.90;;;;;;5067225;28;20095;-88
2024/01/25 03:29:43;;;;;;;23.27;13.68;;;0.30;99.90;;;;;;5057554;28;20108;-87
2024/01/25 03:32:12;;;;;;;27.23;14.18;;;0.30;99.90;;;;;;5055803;28;20028;-89
2024/01/25 03:34:38;;;;;;;28.63;15.88;;;0.30;99.90;;;;;;5043287;28;20032;-87
2024/01/25 03:37:04;;;;;;;24.35;12.20;;;0.30;99.90;;;;;;5061609;28;20402;-89
2024/01/25 03:39:30;;;;;;;21.08;11.43;;;0.40;99.90;;;;;;5040309;28;20052;-87
2024/01/25 03:41:56;;;;;;;24.42;12.73;;;0.30;99.90;;;;;;5056798;28;20025;-86
2024/01/25 03:44:22;;;;;;;19.58;9.85;;;0.30;99.90;;;;;;5059855;28;20028;-87
2024/01/25 03:46:48;;;;;;;20.27;12.27;;;0.30;99.90;;;;;;5056800;28;20023;-87
2024/01/25 03:49:14;;;;;;;23.10;13.30;;;0.30;99.90;;;;;;5054258;28;20041;-87
2024/01/25 03:51:40;;;;;;;24.75;13.30;;;0.20;99.90;;;;;;5059491;28;20036;-87
2024/01/25 03:54:05;;;;;;;24.40;12.70;;;0.20;99.90;;;;;;5055833;28;20383;-87
2024/01/25 03:56:31;;;;;;;18.30;9.13;;;0.20;99.90;;;;;;5036619;28;20028;-89
2024/01/25 03:58:57;;;;;;;21.98;12.10;;;0.20;99.90;;;;;;5046576;28;20096;-86
2024/01/25 04:01:23;;;;;;;27.52;12.25;;;0.20;99.90;;;;;;5049370;28;20021;-86
2024/01/25 04:03:49;;;;;;;20.75;11.55;;;0.20;99.90;;;;;;5055148;28;20021;-87
2024/01/25 04:06:15;;;;;;;26.90;15.75;;;0.10;99.90;;;;;;5036838;28;20071;-86
2024/01/25 04:08:41;;;;;;;17.65;11.27;;;0.20;99.90;;;;;;5053831;28;20021;-89
2024/01/25 04:11:08;;;;;;;11.18;7.57;;;0.20;99.90;;;;;;5038054;28;20117;-88
2024/01/25 04:13:37;;;;;;;22.65;11.10;;;0.20;99.90;;;;;;5034788;28;20021;-89
2024/01/25 04:16:04;;;;;;;21.45;12.52;;;0.20;99.90;;;;;;5034662;28;20024;-89
2024/01/25 04:18:30;;;;;;;22.33;11.77;;;0.20;99.90;;;;;;5054823;28;20021;-87
2024/01/25 04:20:56;;;;;;;17.70;10.35;;;0.20;99.90;;;;;;5037394;28;20047;-87
2024/01/25 04:23:21;;;;;;;23.17;12.77;;;0.20;99.90;;;;;;5038350;28;20029;-87
2024/01/25 04:25:48;;;;;;;21.45;12.05;;;0.20;99.90;;;;;;5063974;28;20039;-87
2024/01/25 04:28:15;;;;;;;21.15;10.60;;;0.20;99.90;;;;;;5050402;28;20044;-87
2024/01/25 04:30:40;;;;;;;17.67;9.70;;;0.20;99.90;;;;;;5061366;28;20120;-88
2024/01/25 04:33:06;;;;;;;19.02;9.05;;;0.20;99.90;;;;;;5035429;28;20056;-89
2024/01/25 04:35:32;;;;;;;19.48;8.93;;;0.10;99.90;;;;;;5044274;28;20030;-90
2024/01/25 04:37:59;;;;;;;18.15;11.45;;;0.10;99.90;;;;;;5051032;28;20028;-89
2024/01/25 04:40:26;;;;;;;22.23;9.25;;;0.10;99.90;;;;;;5037073;28;20047;-88
2024/01/25 04:42:52;;;;;;;20.20;9.98;;;0.10;99.90;;;;;;5050867;28;20028;-88
2024/01/25 04:45:18;;;;;;;21.33;10.77;;;0.10;99.90;;;;;;5056358;28;20045;-87
2024/01/25 04:47:44;;;;;;;16.60;9.18;;;0.10;99.90;;;;;;5058575;28;20404;-86
2024/01/25 04:50:10;;;;;;;21.42;12.02;;;0.10;99.90;;;;;;5043218;28;20037;-88
2024/01/25 04:52:36;;;;;;;20.38;11.20;;;0.10;99.90;;;;;;5052522;28;20029;-92
2024/01/25 04:55:01;;;;;;;21.27;11.18;;;0.10;99.90;;;;;;5072660;28;20021;-91
2024/01/25 04:57:27;;;;;;;19.65;9.63;;;0.10;99.90;;;;;;5046475;28;20086;-90
2024/01/25 04:59:54;;;;;;;16.65;8.10;;;0.10;99.90;;;;;;5046401;28;20099;-89
2024/01/25 05:02:20;;;;;;;25.38;12.18;;;0.10;99.90;;;;;;5055801;28;20040;-88
2024/01/25 05:04:46;;;;;;;14.13;7.53;;;0.00;99.90;;;;;;5048880;28;20025;-90
2024/01/25 05:07:12;;;;;;;14.80;8.88;;;0.00;99.90;;;;;;5050631;28;20059;-90
2024/01/25 05:09:39;;;;;;;24.13;11.45;;;0.00;99.90;;;;;;5068824;28;20036;-88
2024/01/25 05:12:06;;;;;;;18.10;11.73;;;-0.10;99.90;;;;;;5069490;28;20005;-85
2024/01/25 05:14:32;;;;;;;20.33;9.63;;;-0.10;99.90;;;;;;5076315;28;20065;-87
2024/01/25 05:16:58;;;;;;;17.98;11.55;;;0.00;99.90;;;;;;5068944;28;20029;-88
2024/01/25 05:19:25;;;;;;;19.08;10.98;;;0.00;99.90;;;;;;5043351;28;20017;-89
2024/01/25 05:21:51;;;;;;;19.52;11.63;;;0.00;99.90;;;;;;5054651;28;20010;-83
2024/01/25 05:24:22;;;;;;;19.50;9.45;;;0.00;99.90;;;;;;5065528;28;20531;-89
2024/01/25 05:26:48;;;;;;;21.10;11.25;;;0.00;99.90;;;;;;5056674;28;20021;-87
2024/01/25 05:29:15;;;;;;;18.13;10.25;;;0.00;99.90;;;;;;5067567;28;20078;-89
2024/01/25 05:31:48;;;;;;;18.02;8.75;;;0.00;99.90;;;;;;5072068;28;20044;-90
2024/01/25 05:34:15;;;;;;;18.75;9.35;;;0.00;99.90;;;;;;5062209;28;20028;-89
2024/01/25 05:36:41;;;;;;;21.35;11.85;;;0.00;99.90;;;;;;5069962;28;20056;-87
2024/01/25 05:39:08;;;;;;;19.92;12.77;;;0.00;99.90;;;;;;5057779;28;20033;-87
2024/01/25 05:41:34;;;;;;;18.52;9.52;;;0.00;99.90;;;;;;5049984;28;20028;-87
2024/01/25 05:44:00;;;;;;;21.42;10.98;;;0.10;99.90;;;;;;5053016;28;20028;-89
2024/01/25 05:46:26;;;;;;;13.50;9.57;;;0.00;99.90;;;;;;5060535;28;20053;-88
2024/01/25 05:48:52;;;;;;;18.52;10.32;;;0.00;99.90;;;;;;5040655;28;20047;-89
2024/01/25 05:51:18;;;;;;;22.30;12.30;;;0.00;99.90;;;;;;5054790;28;20147;-92
2024/01/25 05:53:44;;;;;;;18.17;11.80;;;0.00;99.90;;;;;;5036083;28;20159;-85
2024/01/25 05:56:10;;;;;;;21.52;11.88;;;0.00;99.90;;;;;;5042444;28;20502;-81
2024/01/25 05:58:36;;;;;;;21.52;12.57;;;-0.10;99.90;;;;;;5048795;28;20467;-88
2024/01/25 06:01:02;;;;;;;17.52;9.90;;;-0.10;99.90;;;;;;5051069;28;20021;-90
2024/01/25 06:03:28;;;;;;;22.63;12.18;;;-0.10;99.90;;;;;;5056993;28;20112;-85
2024/01/25 06:05:54;;;;;;;14.10;8.23;;;-0.10;99.90;;;;;;5056212;28;20065;-87
2024/01/25 06:08:20;;;;;;;16.92;10.38;;;0.00;99.90;;;;;;5058157;28;20036;-84
2024/01/25 06:10:46;;;;;;;18.23;12.82;;;0.00;99.90;;;;;;5062648;28;20394;-90
2024/01/25 06:13:12;;;;;;;20.17;10.50;;;-0.10;99.90;;;;;;5039998;28;20026;-90
2024/01/25 06:15:38;;;;;;;23.10;12.60;;;-0.10;99.90;;;;;;5047572;28;20028;-88
2024/01/25 06:18:04;;;;;;;20.17;13.82;;;0.00;99.90;;;;;;5039343;28;20505;-88
2024/01/25 06:20:30;;;;;;;23.63;12.30;;;-0.10;99.90;;;;;;5039033;28;20052;-90
2024/01/25 06:22:56;;;;;;;20.02;13.52;;;0.00;99.90;;;;;;5058837;28;20485;-89
2024/01/25 06:25:22;;;;;;;29.65;14.70;;;0.00;99.90;;;;;;5063796;28;20025;-89
2024/01/25 06:27:48;;;;;;;21.67;12.88;;;0.00;99.90;;;;;;5055189;28;20036;-89
2024/01/25 06:30:14;;;;;;;23.48;13.75;;;0.10;99.90;;;;;;5067447;28;20075;-90
2024/01/25 06:32:40;;;;;;;13.65;10.15;;;0.10;99.90;;;;;;5064730;28;20021;-89
2024/01/25 06:35:07;;;;;;;22.77;14.48;;;0.10;99.90;;;;;;5042945;28;20040;-89
2024/01/25 06:37:33;;;;;;;28.37;14.20;;;0.00;99.90;;;;;;5041902;28;20470;-89
2024/01/25 06:39:59;;;;;;;21.83;11.60;;;0.00;99.90;;;;;;5058505;28;20017;-90
2024/01/25 06:42:24;;;;;;;19.33;12.00;;;0.00;99.90;;;;;;5057349;28;20109;-88
2024/01/25 06:44:50;;;;;;;21.90;13.20;;;-0.10;99.90;;;;;;5057241;28;20041;-87
2024/01/25 06:47:16;;;;;;;20.88;12.65;;;0.00;99.90;;;;;;5057869;28;20405;-87
2024/01/25 06:49:42;;;;;;;20.45;12.82;;;-0.10;99.90;;;;;;5056935;28;20093;-91
2024/01/25 06:52:08;;;;;;;22.10;13.68;;;0.00;99.90;;;;;;5020782;28;20045;-91
2024/01/25 06:54:33;;;;;;;18.20;11.43;;;0.00;99.90;;;;;;5052695;28;20547;-89
2024/01/25 06:56:59;;;;;;;25.42;14.65;;;0.00;99.90;;;;;;5053750;28;20035;-90
2024/01/25 06:59:25;;;;;;;28.67;14.50;;;-0.10;99.90;;;;;;5069903;28;20028;-88
2024/01/25 07:01:51;;;;;;;21.35;10.13;;;-0.10;99.90;;;;;;5040836;28;20025;-87
2024/01/25 07:04:17;;;;;;;22.80;12.25;;;0.00;99.90;;;;;;5058084;28;20107;-90
2024/01/25 07:06:43;;;;;;;18.58;11.23;;;-0.10;99.90;;;;;;5057883;28;20025;-88
2024/01/25 07:09:12;;;;;;;23.50;10.95;;;-0.10;99.90;;;;;;5058243;28;20374;-89
2024/01/25 07:11:38;;;;;;;24.02;16.02;;;-0.10;99.90;;;;;;5057432;28;20044;-90
2024/01/25 07:14:04;;;;;;;20.52;10.93;;;-0.10;99.90;;;;;;5057250;28;20021;-88
2024/01/25 07:16:30;;;;;;;22.10;12.13;;;-0.10;99.90;;;;;;5056899;28;20025;-88
2024/01/25 07:18:57;;;;;;;20.13;10.70;;;-0.20;99.90;;;;;;5055946;28;20017;-90
2024/01/25 07:21:23;;;;;;;25.85;13.65;;;-0.10;99.90;;;;;;5038249;28;20021;-88
2024/01/25 07:23:48;;;;;;;19.00;13.32;;;-0.10;99.90;;;;;;5056432;28;20027;-89
2024/01/25 07:26:18;;;;;;;26.75;14.57;;;-0.10;99.90;;;;;;5055876;28;20021;-90
2024/01/25 07:28:46;;;;;;;21.33;11.73;;;-0.10;99.90;;;;;;5037730;28;20021;-88
2024/01/25 07:31:12;;;;;;;23.23;13.70;;;-0.10;99.90;;;;;;5040851;28;20048;-88
2024/01/25 07:33:37;;;;;;;17.13;10.32;;;-0.10;99.90;;;;;;5049512;28;20029;-87
2024/01/25 07:36:04;;;;;;;21.83;13.57;;;0.00;99.90;;;;;;5043977;28;20063;-87
2024/01/25 07:38:29;;;;;;;20.20;9.80;;;-0.10;99.90;;;;;;5055131;28;20030;-86
2024/01/25 07:40:56;;;;;;;22.45;13.05;;;0.00;99.90;;;;;;5058001;28;20029;-88
2024/01/25 07:43:21;;;;;;;22.80;13.93;;;-0.10;99.90;;;;;;5056086;28;20021;-90
2024/01/25 07:45:47;;;;;;;15.68;8.48;;;0.00;99.90;;;;;;5054286;28;20441;-87
2024/01/25 07:48:13;;;;;;;13.30;8.35;;;0.00;99.90;;;;;;5037203;28;20470;-88
2024/01/25 07:50:41;;;;;;;24.83;11.88;;;-0.10;99.90;;;;;;5056394;28;20025;-87
2024/01/25 07:53:07;;;;;;;17.30;10.18;;;-0.10;99.90;;;;;;5044040;28;20053;-88
2024/01/25 07:55:33;;;;;;;21.90;11.02;;;-0.10;99.90;;;;;;5039460;28;20524;-88
2024/01/25 07:57:59;;;;;;;18.40;10.20;;;-0.10;99.90;;;;;;5062370;28;20367;-89
2024/01/25 08:00:25;;;;;;;19.50;13.90;;;-0.20;99.90;;;;;;5052169;28;20116;-89
2024/01/25 08:02:50;;;;;;;19.83;9.02;;;-0.20;99.90;;;;;;5051197;28;20017;-87
2024/01/25 08:05:16;;;;;;;23.42;11.82;;;-0.20;99.90;;;;;;5063574;28;20024;-91
2024/01/25 08:07:42;;;;;;;16.25;8.50;;;-0.20;99.90;;;;;;5068144;28;20083;-89
2024/01/25 08:10:08;;;;;;;23.75;11.38;;;-0.20;99.90;;;;;;5066815;28;20505;-87
2024/01/25 08:12:34;;;;;;;20.80;12.50;;;-0.20;99.90;;;;;;5063881;28;20014;-89
2024/01/25 08:15:00;;;;;;;22.23;12.25;;;-0.20;99.90;;;;;;5067553;28;20032;-89
2024/01/25 08:17:36;;;;;;;21.83;11.23;;;-0.10;99.90;;;;;;5051061;28;20025;-87
2024/01/25 08:20:02;;;;;;;19.10;10.48;;;-0.10;99.90;;;;;;5057788;28;20029;-88
2024/01/25 08:22:28;;;;;;;23.50;11.30;;;-0.10;99.90;;;;;;5051766;28;20080;-90
2024/01/25 08:24:54;;;;;;;19.83;11.52;;;-0.10;99.90;;;;;;5057114;28;20391;-90
2024/01/25 08:27:20;;;;;;;20.45;11.70;;;0.00;99.90;;;;;;5053724;28;20021;-90
2024/01/25 08:29:46;;;;;;;25.60;11.77;;;0.00;99.90;;;;;;5069986;28;20071;-89
2024/01/25 08:32:11;;;;;;;28.67;15.20;;;0.10;99.90;;;;;;5041607;28;20021;-90
2024/01/25 08:34:37;;;;;;;19.17;11.02;;;0.20;99.90;;;;;;5042461;28;20088;-88
2024/01/25 08:37:04;;;;;;;27.63;11.73;;;0.20;99.90;;;;;;5042831;28;20021;-90
2024/01/25 08:39:29;;;;;;;19.13;11.80;;;0.20;99.90;;;;;;5055713;28;20025;-90
2024/01/25 08:42:00;;;;;;;18.85;11.48;;;0.30;99.90;;;;;;5038936;28;20035;-87
2024/01/25 08:44:26;;;;;;;24.58;13.43;;;0.20;99.90;;;;;;5049233;28;20057;-89
2024/01/25 08:46:52;;;;;;;19.42;11.20;;;0.20;99.90;;;;;;5067922;28;20071;-89
2024/01/25 08:49:17;;;;;;;20.48;10.18;;;0.20;99.90;;;;;;5061423;28;20021;-87
2024/01/25 08:51:43;;;;;;;32.80;12.93;;;0.10;99.90;;;;;;5043758;28;20517;-90
2024/01/25 08:54:09;;;;;;;19.25;11.60;;;0.10;99.90;;;;;;5039682;28;20053;-89
2024/01/25 08:56:35;;;;;;;18.45;10.90;;;0.20;99.90;;;;;;5045083;28;20025;-87
2024/01/25 08:59:01;;;;;;;17.27;10.75;;;0.20;99.90;;;;;;5057721;28;20041;-89
2024/01/25 09:01:27;;;;;;;16.88;11.00;;;0.20;99.90;;;;;;5038793;28;20497;-89
2024/01/25 09:03:53;;;;;;;18.88;10.45;;;0.20;99.90;;;;;;5044835;28;20032;-91
2024/01/25 09:06:19;;;;;;;14.57;10.05;;;0.20;99.90;;;;;;5039333;28;20025;-90
2024/01/25 09:08:45;;;;;;;17.17;11.10;;;0.10;99.90;;;;;;5038075;28;20089;-91
2024/01/25 09:11:11;;;;;;;22.75;12.85;;;0.10;99.90;;;;;;5056679;28;20518;-89
2024/01/25 09:13:44;;;;;;;21.10;8.15;;;0.10;99.90;;;;;;5061265;28;20073;-91
2024/01/25 09:16:10;;;;;;;16.80;9.63;;;0.20;99.90;;;;;;5048821;28;20025;-90
2024/01/25 09:18:36;;;;;;;11.02;6.93;;;0.10;99.90;;;;;;5050836;28;20116;-89
2024/01/25 09:21:01;;;;;;;17.45;11.30;;;0.10;99.90;;;;;;5064906;28;20025;-91
2024/01/25 09:23:27;;;;;;;19.20;10.35;;;0.00;99.90;;;;;;5046054;28;20029;-91
2024/01/25 09:25:53;;;;;;;16.05;9.75;;;0.10;99.90;;;;;;5062485;28;20089;-90
2024/01/25 09:28:19;;;;;;;19.83;10.93;;;0.10;99.90;;;;;;5045143;28;20018;-88
2024/01/25 09:30:45;;;;;;;13.18;8.23;;;0.10;99.90;;;;;;5060442;28;20059;-89
2024/01/25 09:33:11;;;;;;;19.52;9.23;;;0.00;99.90;;;;;;5052777;28;20017;-88
2024/01/25 09:35:36;;;;;;;20.60;11.57;;;0.00;99.90;;;;;;5056749;28;20055;-88
2024/01/25 09:38:02;;;;;;;18.30;11.35;;;0.00;99.90;;;;;;5041323;28;20025;-90
2024/01/25 09:40:28;;;;;;;17.70;11.27;;;0.10;99.90;;;;;;5039317;28;20100;-88
2024/01/25 09:42:54;;;;;;;17.33;10.88;;;0.10;99.90;;;;;;5056826;28;20028;-88
2024/01/25 09:45:21;;;;;;;15.30;9.25;;;0.10;99.90;;;;;;5058722;28;20504;-89
2024/01/25 09:47:47;;;;;;;19.15;11.95;;;0.20;99.90;;;;;;5043987;28;20021;-90
2024/01/25 09:50:14;;;;;;;19.38;9.95;;;0.20;99.90;;;;;;5052347;28;20490;-90
2024/01/25 09:52:47;;;;;;;17.33;10.17;;;0.20;99.90;;;;;;5048012;28;20108;-90
2024/01/25 09:55:17;;;;;;;20.40;11.20;;;0.20;99.90;;;;;;5057370;28;20124;-89
2024/01/25 09:57:49;;;;;;;12.45;6.68;;;0.20;99.90;;;;;;5057834;28;20029;-89
2024/01/25 10:00:16;;;;;;;16.33;8.35;;;0.20;99.90;;;;;;5053288;28;20041;-88
2024/01/25 10:02:42;;;;;;;17.25;9.75;;;0.10;99.90;;;;;;5047834;28;20044;-89
2024/01/25 10:05:08;;;;;;;17.58;6.30;;;0.10;99.90;;;;;;5070443;28;20009;-90
2024/01/25 10:07:44;;;;;;;14.05;9.57;;;0.10;99.90;;;;;;5066840;28;20021;-90
2024/01/25 10:10:12;;;;;;;16.88;12.63;;;0.10;99.90;;;;;;5057705;28;20029;-89
2024/01/25 10:12:40;;;;;;;17.02;11.15;;;0.20;99.90;;;;;;5056466;28;20084;-88
2024/01/25 10:15:06;;;;;;;15.50;10.30;;;0.20;99.90;;;;;;5038844;28;20033;-89
2024/01/25 10:17:32;;;;;;;18.25;9.18;;;0.20;99.90;;;;;;5038072;28;20032;-88
2024/01/25 10:19:58;;;;;;;13.18;8.20;;;0.20;99.90;;;;;;5056275;28;20025;-89
2024/01/25 10:22:26;;;;;;;15.80;9.55;;;0.10;99.90;;;;;;5026972;28;20367;-89
2024/01/25 10:24:55;;;;;;;17.60;8.00;;;0.20;99.90;;;;;;5028979;28;20082;-88
2024/01/25 10:27:22;;;;;;;16.42;8.20;;;0.20;99.90;;;;;;5040292;28;20063;-89
2024/01/25 10:29:50;;;;;;;16.30;8.82;;;0.20;99.90;;;;;;5060677;28;20393;-88
2024/01/25 10:32:16;;;;;;;;;;;0.20;99.90;;;;;;5061356;28;20043;-89
2024/01/25 10:34:45;;;;;;;17.75;8.60;;;0.20;99.90;;;;;;5041513;28;19905;-89
2024/01/25 10:37:14;;;;;;;15.82;10.43;;;0.20;99.90;;;;;;5059100;28;20059;-89
2024/01/25 10:39:41;;;;;;;16.00;9.63;;;0.20;99.90;;;;;;5065071;28;20025;-89
2024/01/25 10:42:07;;;;;;;19.63;10.80;;;0.20;99.90;;;;;;5053525;28;20104;-90
2024/01/25 10:44:33;;;;;;;21.60;11.35;;;0.30;99.90;;;;;;5052698;28;20350;-89
2024/01/25 10:47:00;;;;;;;20.08;10.70;;;0.20;99.90;;;;;;5055564;28;20021;-90
2024/01/25 10:49:26;;;;;;;15.88;9.38;;;0.30;99.90;;;;;;5055794;28;20064;-89
2024/01/25 10:51:53;;;;;;;19.75;12.93;;;0.30;99.90;;;;;;5038349;28;20477;-87
2024/01/25 10:54:19;;;;;;;26.95;15.10;;;0.30;99.90;;;;;;5038523;28;20021;-89
2024/01/25 10:56:48;;;;;;;18.48;11.77;;;0.30;99.90;;;;;;5056601;28;20040;-90
2024/01/25 10:59:17;;;;;;;17.90;10.65;;;0.30;99.90;;;;;;5058102;28;20017;-90
2024/01/25 11:01:46;;;;;;;20.05;13.48;;;0.40;99.90;;;;;;5042860;28;20033;-92
2024/01/25 11:04:13;;;;;;;21.33;14.40;;;0.40;99.90;;;;;;5062234;28;20078;-89
2024/01/25 11:06:42;;;;;;;22.45;13.32;;;0.40;99.90;;;;;;5046582;28;20104;-88
2024/01/25 11:09:08;;;;;;;16.48;10.25;;;0.50;99.90;;;;;;5066547;28;20017;-90
2024/01/25 11:11:37;;;;;;;17.52;11.20;;;0.50;99.90;;;;;;5056891;28;20048;-90
2024/01/25 11:14:03;;;;;;;20.73;11.18;;;0.40;99.90;;;;;;5050921;28;20138;-89
2024/01/25 11:16:34;;;;;;;20.10;11.95;;;0.40;99.90;;;;;;5060681;28;20029;-88
2024/01/25 11:19:06;;;;;;;19.95;12.55;;;0.30;99.90;;;;;;5056066;28;20021;-89
2024/01/25 11:21:46;;;;;;;25.67;16.75;;;0.40;99.90;;;;;;5038657;28;20382;-93
2024/01/25 11:24:21;;;;;;;21.38;12.50;;;0.50;99.90;;;;;;5039068;28;20066;-90
2024/01/25 11:26:50;;;;;;;29.02;19.55;;;0.40;99.90;;;;;;5042911;28;20025;-88
2024/01/25 11:29:17;;;;;;;37.25;20.58;;;0.40;99.90;;;;;;5059025;28;20057;-90
2024/01/25 11:31:47;;;;;;;;;;;0.50;99.90;;;;;;5053505;28;20050;-88
2024/01/25 11:34:15;;;;;;;24.92;14.52;;;0.60;99.90;;;;;;5075260;28;19908;-89
2024/01/25 11:36:41;;;;;;;22.00;12.50;;;0.50;99.90;;;;;;5067845;28;20013;-89
2024/01/25 11:39:09;;;;;;;21.33;13.85;;;0.50;99.90;;;;;;5073557;28;20038;-91
2024/01/25 11:41:36;;;;;;;29.48;15.45;;;0.50;99.90;;;;;;5041868;28;20032;-91
2024/01/25 11:44:03;;;;;;;18.63;12.27;;;0.50;99.90;;;;;;5057113;28;20359;-89
2024/01/25 11:46:30;;;;;;;23.90;13.90;;;0.40;99.90;;;;;;5055668;28;20053;-89
2024/01/25 11:48:58;;;;;;;25.45;14.85;;;0.30;99.90;;;;;;5056164;28;20119;-89
2024/01/25 11:51:24;;;;;;;21.77;14.20;;;0.30;99.90;;;;;;5057960;28;20037;-89
2024/01/25 11:53:49;;;;;;;27.92;16.60;;;0.30;99.90;;;;;;5044603;28;20029;-89
2024/01/25 11:56:29;;;;;;;31.98;17.77;;;0.30;99.90;;;;;;5062073;28;20064;-89
2024/01/25 11:58:56;;;;;;;30.77;17.48;;;0.30;99.90;;;;;;5039919;28;20583;-90
2024/01/25 12:01:26;;;;;;;27.55;18.38;;;0.30;99.90;;;;;;5064425;28;20112;-90
2024/01/25 12:03:53;;;;;;;27.05;15.38;;;0.40;99.90;;;;;;5056742;28;20083;-89
2024/01/25 12:06:19;;;;;;;25.30;12.70;;;0.40;99.90;;;;;;5055727;28;20033;-89
2024/01/25 12:08:48;;;;;;;24.77;14.68;;;0.40;99.90;;;;;;5060442;28;20547;-88
2024/01/25 12:11:14;;;;;;;29.10;17.60;;;0.30;99.90;;;;;;5057852;28;20605;-91
2024/01/25 12:13:41;;;;;;;42.88;20.17;;;0.30;99.90;;;;;;5071630;28;20025;-89
2024/01/25 12:16:11;;;;;;;30.95;18.40;;;0.40;99.90;;;;;;5067609;28;20474;-89
2024/01/25 12:18:38;;;;;;;30.77;17.00;;;0.40;99.90;;;;;;5065916;28;20052;-88
2024/01/25 12:21:05;;;;;;;27.00;16.77;;;0.50;99.90;;;;;;5043566;28;20044;-87
2024/01/25 12:23:39;;;;;;;29.90;16.27;;;0.50;99.90;;;;;;5060786;28;20029;-89
2024/01/25 12:26:10;;;;;;;27.55;16.88;;;0.40;99.90;;;;;;5055625;28;20446;-87
2024/01/25 12:28:36;;;;;;;24.50;17.30;;;0.40;99.90;;;;;;5056656;28;20103;-89
2024/01/25 12:31:04;;;;;;;26.00;17.02;;;0.40;99.90;;;;;;5055933;28;20039;-91
2024/01/25 12:33:31;;;;;;;29.27;16.77;;;0.40;99.90;;;;;;5056626;28;20023;-89
2024/01/25 12:35:58;;;;;;;32.67;18.45;;;0.40;99.90;;;;;;5055591;28;20088;-88